Time;durP1;ratioP1;P1;durP2;ratioP2;P2;SDS_P1;SDS_P2;PMS_P1;PMS_P2;Temp;Humidity;BMP_temperature;BMP_pressure;BME280_temperature;BME280_humidity;BME280_pressure;Samples;Min_cycle;Max_cycle;Signal;HPM_P1;HPM_P2
2021/10/30 00:00:13;;;;;;;57.80;51.58;;;5.00;99.90;;;;;;4982393;28;20752;-81
2021/10/30 00:02:39;;;;;;;56.33;50.22;;;4.90;99.90;;;;;;4978819;28;20396;-82
2021/10/30 00:05:06;;;;;;;55.33;49.30;;;4.80;99.90;;;;;;4978265;28;20389;-82
2021/10/30 00:07:32;;;;;;;55.30;47.88;;;4.80;99.90;;;;;;4980547;28;20875;-82
2021/10/30 00:09:58;;;;;;;57.50;51.20;;;4.80;99.90;;;;;;4986862;28;20387;-81
2021/10/30 00:12:24;;;;;;;57.42;50.72;;;4.70;99.90;;;;;;4978832;28;20409;-81
2021/10/30 00:14:49;;;;;;;54.07;48.27;;;4.70;99.90;;;;;;4981668;28;20416;-81
2021/10/30 00:17:15;;;;;;;52.33;46.70;;;4.70;99.90;;;;;;4985679;28;20399;-81
2021/10/30 00:19:41;;;;;;;55.63;49.63;;;4.70;99.90;;;;;;4981925;28;20399;-82
2021/10/30 00:22:07;;;;;;;55.00;49.17;;;4.70;99.90;;;;;;4983070;28;21022;-81
2021/10/30 00:24:33;;;;;;;59.25;52.88;;;4.70;99.90;;;;;;4984670;28;20832;-82
2021/10/30 00:26:59;;;;;;;61.58;54.97;;;4.70;99.90;;;;;;4978423;28;20755;-82
2021/10/30 00:29:25;;;;;;;67.07;58.53;;;4.90;99.90;;;;;;4990371;28;20479;-82
2021/10/30 00:31:53;;;;;;;60.88;54.25;;;5.10;99.90;;;;;;4989349;28;20858;-82
2021/10/30 00:34:18;;;;;;;62.20;55.47;;;5.10;99.90;;;;;;4991677;28;20882;-82
2021/10/30 00:36:44;;;;;;;63.45;56.65;;;5.00;99.90;;;;;;4990908;28;20396;-81
2021/10/30 00:39:10;;;;;;;69.37;59.43;;;5.00;99.90;;;;;;4991130;28;20484;-82
2021/10/30 00:41:35;;;;;;;62.07;55.27;;;5.00;99.90;;;;;;4990526;28;20891;-82
2021/10/30 00:44:09;;;;;;;61.92;54.85;;;5.00;99.90;;;;;;4991803;28;20858;-82
2021/10/30 00:46:34;;;;;;;59.97;53.47;;;5.00;99.90;;;;;;4990737;28;20393;-82
2021/10/30 00:49:02;;;;;;;60.53;53.83;;;5.00;99.90;;;;;;4991651;28;20435;-82
2021/10/30 00:51:30;;;;;;;61.20;54.33;;;5.00;99.90;;;;;;4974018;28;20418;-82
2021/10/30 00:53:55;;;;;;;59.85;53.05;;;5.00;99.90;;;;;;4983046;28;20389;-82
2021/10/30 00:56:22;;;;;;;57.22;51.20;;;5.00;99.90;;;;;;4991149;28;20412;-82
2021/10/30 00:58:49;;;;;;;59.53;52.45;;;5.00;99.90;;;;;;4990953;28;20401;-82
2021/10/30 01:01:15;;;;;;;60.45;53.83;;;5.00;99.90;;;;;;4989252;28;20396;-81
2021/10/30 01:03:41;;;;;;;68.40;60.80;;;5.00;99.90;;;;;;4990888;28;20398;-82
2021/10/30 01:06:07;;;;;;;65.88;58.72;;;5.10;99.90;;;;;;4989781;28;20447;-82
2021/10/30 01:08:32;;;;;;;63.22;56.33;;;5.10;99.90;;;;;;4971321;28;20375;-81
2021/10/30 01:10:59;;;;;;;67.33;60.03;;;5.10;99.90;;;;;;4987700;28;20447;-82
2021/10/30 01:13:26;;;;;;;65.72;58.65;;;5.30;99.90;;;;;;4989782;28;20405;-81
2021/10/30 01:15:52;;;;;;;66.30;58.92;;;5.40;99.90;;;;;;4990156;28;20391;-82
2021/10/30 01:18:17;;;;;;;62.90;56.40;;;5.50;99.90;;;;;;4990002;28;20397;-82
2021/10/30 01:20:43;;;;;;;62.63;56.03;;;5.50;99.90;;;;;;4990037;28;20392;-82
2021/10/30 01:23:09;;;;;;;61.28;54.67;;;5.40;99.90;;;;;;4988948;28;20420;-82
2021/10/30 01:25:35;;;;;;;69.47;60.10;;;5.40;99.90;;;;;;4983454;28;20387;-82
2021/10/30 01:28:01;;;;;;;61.37;54.80;;;5.40;99.90;;;;;;4986869;28;20791;-82
2021/10/30 01:30:26;;;;;;;63.33;56.40;;;5.40;99.90;;;;;;4989891;28;20450;-83
2021/10/30 01:32:59;;;;;;;61.53;53.80;;;5.40;99.90;;;;;;4989870;28;20416;-82
2021/10/30 01:35:26;;;;;;;62.03;55.17;;;5.40;99.90;;;;;;4989551;28;20725;-82
2021/10/30 01:37:54;;;;;;;61.13;54.50;;;5.30;99.90;;;;;;4988702;28;20420;-82
2021/10/30 01:40:19;;;;;;;55.95;49.97;;;5.20;99.90;;;;;;4987626;28;20404;-81
2021/10/30 01:42:56;;;;;;;59.60;53.10;;;5.20;99.90;;;;;;4988618;28;20396;-82
2021/10/30 01:45:22;;;;;;;58.03;51.90;;;5.10;99.90;;;;;;4987862;28;20462;-82
2021/10/30 01:47:47;;;;;;;59.83;53.33;;;5.10;99.90;;;;;;4989016;28;20879;-81
2021/10/30 01:50:14;;;;;;;56.50;50.30;;;5.00;99.90;;;;;;4987927;28;20392;-81
2021/10/30 01:52:41;;;;;;;56.58;50.42;;;4.90;99.90;;;;;;4989130;28;20417;-82
2021/10/30 01:55:18;;;;;;;55.97;49.97;;;5.00;99.90;;;;;;4989254;28;20389;-82
2021/10/30 01:57:45;;;;;;;58.80;52.45;;;4.90;99.90;;;;;;4987210;28;20744;-81
2021/10/30 02:00:11;;;;;;;54.85;49.20;;;4.80;99.90;;;;;;4988988;28;20431;-82
2021/10/30 02:02:37;;;;;;;53.65;47.92;;;4.80;99.90;;;;;;4987862;28;20563;-81
2021/10/30 02:05:05;;;;;;;56.87;50.73;;;4.80;99.90;;;;;;4989453;28;20528;-82
2021/10/30 02:07:31;;;;;;;59.13;52.75;;;4.80;99.90;;;;;;4991531;28;20408;-82
2021/10/30 02:09:57;;;;;;;58.40;52.20;;;4.80;99.90;;;;;;4991374;28;20401;-81
2021/10/30 02:12:23;;;;;;;53.28;47.45;;;4.80;99.90;;;;;;4991054;28;20412;-81
2021/10/30 02:14:48;;;;;;;54.55;48.58;;;4.80;99.90;;;;;;4993284;28;20898;-82
2021/10/30 02:17:14;;;;;;;52.93;47.43;;;4.80;99.90;;;;;;4992782;28;20404;-81
2021/10/30 02:19:40;;;;;;;58.97;52.57;;;4.80;99.90;;;;;;4992773;28;20388;-82
2021/10/30 02:22:05;;;;;;;55.53;49.60;;;4.70;99.90;;;;;;4992006;28;20397;-82
2021/10/30 02:24:33;;;;;;;52.10;46.65;;;4.70;99.90;;;;;;4992842;28;20481;-82
2021/10/30 02:26:58;;;;;;;55.73;48.27;;;4.70;99.90;;;;;;4992958;28;20483;-82
2021/10/30 02:29:24;;;;;;;53.20;47.50;;;4.60;99.90;;;;;;4992684;28;20483;-82
2021/10/30 02:31:50;;;;;;;54.93;49.10;;;4.60;99.90;;;;;;4992827;28;20416;-82
2021/10/30 02:34:15;;;;;;;54.53;48.70;;;4.60;99.90;;;;;;4992119;28;20591;-82
2021/10/30 02:36:41;;;;;;;53.45;47.80;;;4.60;99.90;;;;;;4992554;28;20388;-82
2021/10/30 02:39:10;;;;;;;56.35;48.60;;;4.60;99.90;;;;;;4992953;28;20404;-81
2021/10/30 02:41:36;;;;;;;56.40;50.28;;;4.60;99.90;;;;;;4993000;28;20493;-82
2021/10/30 02:44:01;;;;;;;61.73;54.53;;;4.60;99.90;;;;;;4991815;28;20400;-82
2021/10/30 02:46:27;;;;;;;55.23;49.17;;;4.50;99.90;;;;;;4993370;28;20400;-82
2021/10/30 02:48:52;;;;;;;53.53;47.88;;;4.50;99.90;;;;;;4991121;28;20717;-82
2021/10/30 02:51:18;;;;;;;53.00;47.30;;;4.50;99.90;;;;;;4992323;28;20393;-81
2021/10/30 02:53:43;;;;;;;50.80;45.50;;;4.50;99.90;;;;;;4991223;28;20843;-81
2021/10/30 02:56:09;;;;;;;51.20;45.90;;;4.50;99.90;;;;;;4990875;28;21266;-81
2021/10/30 02:58:34;;;;;;;53.38;47.58;;;4.50;99.90;;;;;;4990902;28;20393;-82
2021/10/30 03:01:00;;;;;;;54.40;48.47;;;4.40;99.90;;;;;;4992291;28;20393;-81
2021/10/30 03:03:26;;;;;;;54.97;49.00;;;4.40;99.90;;;;;;4993457;28;20377;-82
2021/10/30 03:05:51;;;;;;;55.55;49.30;;;4.30;99.90;;;;;;4993060;28;20396;-81
2021/10/30 03:08:17;;;;;;;61.88;54.70;;;4.40;99.90;;;;;;4991868;28;20433;-82
2021/10/30 03:10:43;;;;;;;60.90;54.27;;;4.30;99.90;;;;;;4991419;28;20420;-81
2021/10/30 03:13:10;;;;;;;59.47;53.00;;;4.40;99.90;;;;;;4990500;28;20455;-81
2021/10/30 03:15:35;;;;;;;60.90;54.03;;;4.30;99.90;;;;;;4991806;28;20791;-82
2021/10/30 03:18:01;;;;;;;59.03;52.73;;;4.40;99.90;;;;;;4992435;28;20385;-82
2021/10/30 03:20:26;;;;;;;59.97;53.55;;;4.40;99.90;;;;;;4993069;28;20392;-82
2021/10/30 03:22:52;;;;;;;58.70;52.33;;;4.50;99.90;;;;;;4993073;28;20463;-82
2021/10/30 03:25:18;;;;;;;59.10;52.63;;;4.50;99.90;;;;;;4993194;28;21007;-82
2021/10/30 03:27:43;;;;;;;58.37;51.93;;;4.50;99.90;;;;;;4990984;28;20377;-83
2021/10/30 03:30:09;;;;;;;56.50;50.50;;;4.40;99.90;;;;;;4992083;28;20432;-82
2021/10/30 03:32:35;;;;;;;58.63;52.17;;;4.50;99.90;;;;;;4991502;28;20475;-82
2021/10/30 03:35:01;;;;;;;56.38;50.17;;;4.50;99.90;;;;;;4991864;28;20381;-81
2021/10/30 03:37:26;;;;;;;54.83;48.92;;;4.50;99.90;;;;;;4992603;28;20381;-82
2021/10/30 03:39:53;;;;;;;53.23;47.43;;;4.40;99.90;;;;;;4991154;28;20404;-82
2021/10/30 03:42:19;;;;;;;51.93;46.37;;;4.40;99.90;;;;;;4990373;28;20560;-82
2021/10/30 03:44:45;;;;;;;52.97;47.30;;;4.40;99.90;;;;;;4991795;28;20532;-81
2021/10/30 03:47:10;;;;;;;50.97;45.58;;;4.30;99.90;;;;;;4992382;28;20579;-82
2021/10/30 03:49:36;;;;;;;51.97;46.47;;;4.30;99.90;;;;;;4992206;28;20814;-82
2021/10/30 03:52:03;;;;;;;51.97;46.58;;;4.30;99.90;;;;;;4991402;28;20405;-81
2021/10/30 03:54:28;;;;;;;54.70;48.90;;;4.20;99.90;;;;;;4989860;28;20478;-81
2021/10/30 03:56:54;;;;;;;54.50;48.70;;;4.20;99.90;;;;;;4975134;28;20398;-82
2021/10/30 03:59:20;;;;;;;54.03;48.22;;;4.10;99.90;;;;;;4972041;28;20449;-81
2021/10/30 04:01:46;;;;;;;52.92;47.33;;;4.10;99.90;;;;;;4985474;28;20460;-82
2021/10/30 04:04:11;;;;;;;57.15;50.97;;;4.10;99.90;;;;;;4991991;28;20389;-81
2021/10/30 04:06:37;;;;;;;57.20;51.10;;;4.10;99.90;;;;;;4990769;28;20401;-82
2021/10/30 04:09:03;;;;;;;56.73;50.53;;;4.10;99.90;;;;;;4990330;28;20408;-82
2021/10/30 04:11:29;;;;;;;55.65;49.67;;;4.00;99.90;;;;;;4990494;28;20918;-82
2021/10/30 04:13:54;;;;;;;54.43;48.53;;;4.00;99.90;;;;;;4992300;28;21411;-82
2021/10/30 04:16:20;;;;;;;54.03;48.20;;;4.00;99.90;;;;;;4992058;28;20389;-82
2021/10/30 04:18:46;;;;;;;51.93;46.47;;;4.00;99.90;;;;;;4992944;28;20475;-82
2021/10/30 04:21:13;;;;;;;54.30;48.50;;;3.90;99.90;;;;;;4991001;28;20432;-82
2021/10/30 04:23:39;;;;;;;56.50;50.30;;;3.90;99.90;;;;;;4991649;28;20408;-81
2021/10/30 04:26:05;;;;;;;59.58;53.03;;;3.90;99.90;;;;;;4992009;28;21029;-81
2021/10/30 04:28:31;;;;;;;58.13;51.85;;;3.90;99.90;;;;;;4988204;28;20975;-82
2021/10/30 04:31:02;;;;;;;55.70;49.60;;;3.90;99.90;;;;;;4989870;28;20385;-82
2021/10/30 04:33:28;;;;;;;61.70;54.45;;;3.90;99.90;;;;;;4990802;28;20423;-82
2021/10/30 04:35:54;;;;;;;61.73;55.03;;;3.90;99.90;;;;;;4988610;28;20405;-81
2021/10/30 04:38:19;;;;;;;60.13;53.53;;;3.90;99.90;;;;;;4991342;28;20372;-82
2021/10/30 04:40:45;;;;;;;58.22;51.83;;;3.90;99.90;;;;;;4988513;28;20934;-82
2021/10/30 04:43:11;;;;;;;68.65;59.45;;;3.80;99.90;;;;;;4989280;28;20477;-81
2021/10/30 04:45:40;;;;;;;67.70;57.23;;;3.80;99.90;;;;;;4989561;28;20436;-82
2021/10/30 04:48:06;;;;;;;62.45;55.70;;;3.80;99.90;;;;;;4989977;28;20891;-81
2021/10/30 04:50:32;;;;;;;67.80;59.33;;;3.80;99.90;;;;;;4988404;28;20387;-81
2021/10/30 04:52:58;;;;;;;65.33;57.33;;;3.80;99.90;;;;;;4988217;28;20518;-82
2021/10/30 04:55:23;;;;;;;69.47;60.67;;;3.80;99.90;;;;;;4989869;28;20467;-82
2021/10/30 04:57:49;;;;;;;64.00;57.00;;;3.70;99.90;;;;;;4989169;28;20389;-81
2021/10/30 05:00:15;;;;;;;66.93;57.38;;;3.70;99.90;;;;;;4988152;28;20389;-81
2021/10/30 05:02:41;;;;;;;65.13;57.10;;;3.70;99.90;;;;;;4989871;28;20792;-81
2021/10/30 05:05:07;;;;;;;62.97;55.77;;;3.60;99.90;;;;;;4987953;28;20488;-81
2021/10/30 05:07:32;;;;;;;64.75;56.83;;;3.70;99.90;;;;;;4991115;28;20786;-82
2021/10/30 05:09:58;;;;;;;65.30;56.73;;;3.70;99.90;;;;;;4992004;28;20890;-81
2021/10/30 05:12:26;;;;;;;60.47;53.65;;;3.70;99.90;;;;;;4989000;28;20914;-82
2021/10/30 05:14:52;;;;;;;58.25;51.85;;;3.70;99.90;;;;;;4987816;28;20440;-82
2021/10/30 05:17:17;;;;;;;56.80;50.37;;;3.60;99.90;;;;;;4989266;28;20423;-81
2021/10/30 05:19:43;;;;;;;67.50;57.78;;;3.60;99.90;;;;;;4989760;28;20396;-81
2021/10/30 05:22:09;;;;;;;66.13;56.80;;;3.70;99.90;;;;;;4989373;28;20401;-81
2021/10/30 05:24:34;;;;;;;59.03;52.53;;;3.60;99.90;;;;;;4990183;28;20875;-82
2021/10/30 05:27:00;;;;;;;66.30;57.57;;;3.60;99.90;;;;;;4984575;28;20443;-82
2021/10/30 05:29:25;;;;;;;60.35;53.75;;;3.60;99.90;;;;;;4990183;28;20393;-81
2021/10/30 05:31:51;;;;;;;61.37;54.17;;;3.50;99.90;;;;;;4989809;28;20416;-81
2021/10/30 05:34:16;;;;;;;61.20;54.50;;;3.50;99.90;;;;;;4990190;28;20384;-81
2021/10/30 05:36:42;;;;;;;62.75;55.90;;;3.50;99.90;;;;;;4989296;28;20453;-81
2021/10/30 05:39:13;;;;;;;60.80;54.00;;;3.50;99.90;;;;;;4988335;28;20428;-81
2021/10/30 05:41:39;;;;;;;68.90;59.35;;;3.50;99.90;;;;;;4990598;28;20397;-81
2021/10/30 05:44:05;;;;;;;68.05;59.55;;;3.50;99.90;;;;;;4993364;28;20381;-82
2021/10/30 05:46:31;;;;;;;67.77;59.70;;;3.50;99.90;;;;;;4993296;28;20488;-82
2021/10/30 05:48:59;;;;;;;66.87;57.43;;;3.50;99.90;;;;;;4993634;28;20471;-81
2021/10/30 05:51:24;;;;;;;74.35;62.85;;;3.50;99.90;;;;;;4995232;28;20446;-82
2021/10/30 05:53:50;;;;;;;66.67;58.60;;;3.40;99.90;;;;;;4994945;28;20409;-82
2021/10/30 05:56:15;;;;;;;67.15;57.17;;;3.40;99.90;;;;;;4993756;28;20496;-82
2021/10/30 05:58:41;;;;;;;70.40;60.80;;;3.40;99.90;;;;;;4995382;28;20408;-82
2021/10/30 06:01:06;;;;;;;68.27;59.33;;;3.40;99.90;;;;;;4994698;28;20392;-82
2021/10/30 06:03:32;;;;;;;75.20;62.90;;;3.40;99.90;;;;;;4994256;28;20438;-81
2021/10/30 06:05:58;;;;;;;68.57;61.03;;;3.40;99.90;;;;;;4992459;28;20794;-80
2021/10/30 06:08:23;;;;;;;72.07;62.55;;;3.40;99.90;;;;;;4993371;28;20389;-81
2021/10/30 06:10:50;;;;;;;72.65;61.95;;;3.50;99.90;;;;;;4993112;28;20404;-81
2021/10/30 06:13:16;;;;;;;73.43;62.47;;;3.40;99.90;;;;;;4993243;28;20416;-82
2021/10/30 06:15:41;;;;;;;78.43;66.00;;;3.40;99.90;;;;;;4992541;28;20505;-82
2021/10/30 06:18:07;;;;;;;75.68;64.00;;;3.40;99.90;;;;;;4993952;28;20384;-81
2021/10/30 06:20:33;;;;;;;82.93;67.90;;;3.50;99.90;;;;;;4995382;28;20377;-81
2021/10/30 06:23:01;;;;;;;78.83;65.63;;;3.60;99.90;;;;;;4993044;28;20500;-82
2021/10/30 06:25:26;;;;;;;72.90;63.13;;;3.60;99.90;;;;;;4994908;28;20462;-82
2021/10/30 06:27:52;;;;;;;77.18;64.75;;;3.70;99.90;;;;;;4993178;28;20444;-82
2021/10/30 06:30:18;;;;;;;75.97;63.67;;;3.70;99.90;;;;;;4992866;28;20385;-81
2021/10/30 06:32:43;;;;;;;74.07;64.93;;;3.80;99.90;;;;;;4994124;28;20396;-82
2021/10/30 06:35:10;;;;;;;74.33;64.73;;;3.80;99.90;;;;;;4994621;28;20404;-81
2021/10/30 06:37:38;;;;;;;75.00;61.30;;;3.80;99.90;;;;;;4994567;28;20743;-81
2021/10/30 06:40:10;;;;;;;73.60;64.22;;;3.90;99.90;;;;;;4993608;28;20409;-82
2021/10/30 06:42:36;;;;;;;71.30;62.25;;;3.90;99.90;;;;;;4993004;28;20451;-82
2021/10/30 06:45:02;;;;;;;71.20;62.77;;;4.00;99.90;;;;;;4993351;28;20395;-81
2021/10/30 06:47:28;;;;;;;77.57;65.18;;;4.00;99.90;;;;;;4993734;28;20419;-82
2021/10/30 06:49:57;;;;;;;73.20;64.15;;;4.10;99.90;;;;;;4994088;28;20381;-80
2021/10/30 06:52:23;;;;;;;72.03;63.55;;;4.10;99.90;;;;;;4993431;28;20795;-80
2021/10/30 06:54:49;;;;;;;72.80;64.07;;;4.20;99.90;;;;;;4992214;28;20763;-80
2021/10/30 06:57:15;;;;;;;73.43;62.63;;;4.20;99.90;;;;;;4992916;28;20389;-80
2021/10/30 06:59:40;;;;;;;69.80;61.17;;;4.30;99.90;;;;;;4993970;28;20381;-80
2021/10/30 07:02:10;;;;;;;66.05;58.88;;;4.30;99.90;;;;;;4992788;28;20404;-79
2021/10/30 07:04:36;;;;;;;73.57;64.10;;;4.50;99.90;;;;;;4994508;28;20886;-80
2021/10/30 07:07:03;;;;;;;71.18;63.38;;;4.60;99.90;;;;;;4993368;28;20435;-80
2021/10/30 07:09:28;;;;;;;75.53;63.75;;;4.60;99.90;;;;;;4993715;28;20384;-80
2021/10/30 07:11:54;;;;;;;76.10;66.60;;;4.70;99.90;;;;;;4994252;28;20779;-82
2021/10/30 07:14:21;;;;;;;80.45;69.35;;;4.80;99.90;;;;;;4992899;28;20397;-80
2021/10/30 07:16:48;;;;;;;71.50;63.72;;;4.90;99.90;;;;;;4994155;28;20467;-80
2021/10/30 07:19:13;;;;;;;71.17;63.43;;;5.20;99.90;;;;;;4993758;28;20377;-81
2021/10/30 07:21:39;;;;;;;69.83;62.43;;;5.40;99.90;;;;;;4993590;28;20383;-80
2021/10/30 07:24:05;;;;;;;64.78;57.90;;;5.60;99.90;;;;;;4991303;28;20432;-81
2021/10/30 07:26:31;;;;;;;65.38;58.25;;;5.80;99.90;;;;;;4992441;28;20428;-81
2021/10/30 07:28:57;;;;;;;62.88;56.20;;;6.00;99.90;;;;;;4992008;28;20396;-80
2021/10/30 07:31:22;;;;;;;59.50;53.28;;;6.30;99.90;;;;;;4993055;28;20381;-81
2021/10/30 07:33:48;;;;;;;54.90;49.05;;;6.40;99.90;;;;;;4991417;28;20491;-81
2021/10/30 07:36:13;;;;;;;56.07;50.13;;;6.60;99.90;;;;;;4990811;28;20891;-81
2021/10/30 07:38:39;;;;;;;52.22;46.83;;;6.90;99.90;;;;;;4990672;28;20475;-80
2021/10/30 07:41:05;;;;;;;50.38;45.22;;;7.10;99.90;;;;;;4990631;28;20401;-81
2021/10/30 07:43:34;;;;;;;49.95;44.78;;;7.20;99.90;;;;;;4991062;28;20404;-80
2021/10/30 07:46:00;;;;;;;48.80;43.13;;;7.30;99.90;;;;;;4990576;28;20560;-81
2021/10/30 07:48:26;;;;;;;48.87;42.90;;;7.40;99.90;;;;;;4989849;28;20393;-81
2021/10/30 07:50:51;;;;;;;44.88;40.30;;;7.60;99.90;;;;;;4991650;28;20421;-81
2021/10/30 07:53:17;;;;;;;46.03;41.33;;;7.70;99.90;;;;;;4991928;28;20518;-81
2021/10/30 07:55:43;;;;;;;45.57;40.77;;;7.80;99.90;;;;;;4989601;28;20409;-81
2021/10/30 07:58:09;;;;;;;44.00;39.37;;;7.90;99.90;;;;;;4991568;28;20483;-81
2021/10/30 08:00:34;;;;;;;42.05;37.55;;;8.00;99.90;;;;;;4990564;28;20396;-81
2021/10/30 08:03:00;;;;;;;41.70;37.45;;;8.10;99.90;;;;;;4984490;28;20393;-81
2021/10/30 08:05:25;;;;;;;41.33;37.10;;;8.20;99.90;;;;;;4991534;28;20387;-83
2021/10/30 08:07:51;;;;;;;40.83;36.43;;;8.30;99.90;;;;;;4993090;28;20406;-82
2021/10/30 08:10:17;;;;;;;40.33;36.33;;;8.40;99.90;;;;;;4990863;28;20385;-81
2021/10/30 08:12:44;;;;;;;41.17;36.38;;;8.50;99.90;;;;;;4990894;28;20972;-81
2021/10/30 08:15:10;;;;;;;38.75;34.67;;;8.70;99.90;;;;;;4991101;28;20401;-81
2021/10/30 08:17:36;;;;;;;38.42;34.53;;;8.80;99.90;;;;;;4991566;28;20764;-81
2021/10/30 08:20:03;;;;;;;38.35;34.25;;;8.90;99.90;;;;;;4992614;28;20755;-81
2021/10/30 08:22:35;;;;;;;37.70;33.80;;;9.10;99.90;;;;;;4991286;28;20416;-81
2021/10/30 08:25:01;;;;;;;36.70;32.70;;;9.20;99.90;;;;;;4977664;28;20392;-81
2021/10/30 08:27:26;;;;;;;36.10;32.40;;;9.30;99.90;;;;;;4992910;28;20397;-80
2021/10/30 08:29:52;;;;;;;35.43;31.83;;;9.50;99.90;;;;;;4993306;28;20381;-81
2021/10/30 08:32:17;;;;;;;36.97;33.13;;;9.70;99.90;;;;;;4992477;28;20926;-81
2021/10/30 08:34:43;;;;;;;34.50;30.90;;;9.90;99.90;;;;;;4993162;28;20397;-81
2021/10/30 08:37:10;;;;;;;34.77;31.30;;;10.00;99.90;;;;;;4994274;28;20425;-80
2021/10/30 08:39:36;;;;;;;33.55;29.67;;;10.20;99.90;;;;;;4990055;28;20399;-81
2021/10/30 08:42:03;;;;;;;33.37;29.77;;;10.30;99.90;;;;;;4992193;28;20404;-81
2021/10/30 08:44:28;;;;;;;32.55;29.02;;;10.60;99.90;;;;;;4991631;28;20377;-81
2021/10/30 08:46:54;;;;;;;32.00;28.60;;;10.80;99.90;;;;;;4987688;28;20720;-82
2021/10/30 08:49:21;;;;;;;32.20;28.95;;;11.00;99.90;;;;;;4971949;28;20386;-81
2021/10/30 08:51:49;;;;;;;30.10;27.10;;;11.10;99.90;;;;;;4973638;28;20402;-81
2021/10/30 08:54:15;;;;;;;31.08;27.88;;;11.20;99.90;;;;;;4981833;28;20404;-81
2021/10/30 08:56:42;;;;;;;31.27;27.83;;;11.40;99.90;;;;;;4991239;28;20393;-81
2021/10/30 08:59:08;;;;;;;31.92;26.42;;;11.40;99.90;;;;;;4992983;28;20380;-81
2021/10/30 09:01:46;;;;;;;29.83;26.63;;;11.50;99.90;;;;;;4990787;28;20373;-81
2021/10/30 09:04:13;;;;;;;29.60;26.48;;;11.60;99.90;;;;;;4990502;28;20388;-81
2021/10/30 09:06:54;;;;;;;28.25;25.25;;;11.60;99.90;;;;;;4990824;28;20422;-81
2021/10/30 09:09:20;;;;;;;39.92;26.83;;;11.80;99.90;;;;;;4988972;28;20396;-81
2021/10/30 09:11:57;;;;;;;29.40;26.00;;;12.00;99.90;;;;;;4999240;28;20445;-81
2021/10/30 09:14:25;;;;;;;29.80;24.57;;;12.10;99.90;;;;;;4988498;28;20397;-81
2021/10/30 09:17:14;;;;;;;28.10;25.10;;;12.10;99.90;;;;;;4982181;28;20383;-80
2021/10/30 09:19:43;;;;;;;26.33;23.53;;;12.10;99.90;;;;;;4984645;28;20394;-81
2021/10/30 09:22:09;;;;;;;26.27;22.73;;;12.20;99.90;;;;;;4980228;28;20443;-81
2021/10/30 09:25:04;;;;;;;27.20;23.17;;;12.40;99.90;;;;;;4980888;28;20745;-81
2021/10/30 09:27:53;;;;;;;25.85;22.85;;;12.50;99.90;;;;;;4972066;28;20394;-82
2021/10/30 09:30:32;;;;;;;26.17;23.42;;;12.60;99.90;;;;;;4989242;28;20833;-81
2021/10/30 09:33:05;;;;;;;25.10;22.40;;;12.60;99.90;;;;;;4991829;28;20405;-82
2021/10/30 09:35:41;;;;;;;25.92;22.10;;;12.90;99.90;;;;;;4991178;28;20391;-82
2021/10/30 09:38:25;;;;;;;25.95;22.10;;;12.90;99.90;;;;;;4990435;28;20488;-83
2021/10/30 09:40:51;;;;;;;25.88;22.73;;;12.90;99.90;;;;;;4989102;28;20507;-82
2021/10/30 09:43:19;;;;;;;26.35;22.10;;;13.00;99.90;;;;;;4992028;28;20842;-82
2021/10/30 09:45:47;;;;;;;28.00;22.77;;;13.20;99.90;;;;;;4990905;28;20924;-82
2021/10/30 09:48:15;;;;;;;25.20;22.58;;;13.20;99.90;;;;;;4988977;28;20428;-82
2021/10/30 09:50:42;;;;;;;24.58;22.00;;;13.30;99.90;;;;;;4989708;28;20392;-82
2021/10/30 09:53:33;;;;;;;25.93;23.17;;;13.30;99.90;;;;;;4989371;28;20447;-82
2021/10/30 09:56:01;;;;;;;24.80;22.23;;;13.30;99.90;;;;;;4990665;28;20802;-82
2021/10/30 09:58:37;;;;;;;24.83;22.20;;;13.10;99.90;;;;;;4989335;28;20488;-83
2021/10/30 10:01:17;;;;;;;24.58;22.10;;;13.00;99.90;;;;;;4989222;28;20392;-82
2021/10/30 10:03:45;;;;;;;23.47;20.70;;;13.00;99.90;;;;;;4990026;28;20491;-82
2021/10/30 10:06:14;;;;;;;24.02;21.42;;;13.30;99.90;;;;;;4991554;28;20484;-82
2021/10/30 10:08:42;;;;;;;23.45;20.10;;;13.30;99.90;;;;;;4991834;28;20455;-82
2021/10/30 10:11:16;;;;;;;23.30;20.80;;;13.30;99.90;;;;;;4991425;28;20408;-82
2021/10/30 10:13:44;;;;;;;23.13;20.58;;;13.40;99.90;;;;;;4990278;28;20508;-83
2021/10/30 10:16:19;;;;;;;30.40;20.10;;;13.50;99.90;;;;;;4991282;28;20859;-82
2021/10/30 10:18:50;;;;;;;24.08;19.25;;;13.50;99.90;;;;;;4990227;28;20389;-82
2021/10/30 10:21:22;;;;;;;29.67;19.85;;;13.60;99.90;;;;;;4992191;28;20376;-82
2021/10/30 10:23:48;;;;;;;21.15;18.75;;;13.60;99.90;;;;;;4992200;28;20385;-81
2021/10/30 10:26:17;;;;;;;25.83;20.00;;;13.50;99.90;;;;;;4992053;28;20446;-82
2021/10/30 10:28:43;;;;;;;20.70;18.60;;;13.60;99.90;;;;;;4995614;28;20468;-82
2021/10/30 10:31:19;;;;;;;24.30;19.53;;;13.60;99.90;;;;;;4996087;28;20826;-82
2021/10/30 10:34:04;;;;;;;23.98;18.63;;;13.80;99.90;;;;;;4994710;28;20443;-82
2021/10/30 10:36:30;;;;;;;28.13;18.67;;;13.90;99.90;;;;;;4994538;28;20391;-82
2021/10/30 10:38:58;;;;;;;20.13;17.70;;;14.00;99.90;;;;;;4996190;28;20459;-82
2021/10/30 10:41:46;;;;;;;21.10;18.13;;;14.10;99.90;;;;;;4997817;28;20499;-82
2021/10/30 10:44:36;;;;;;;61.38;20.17;;;14.20;99.90;;;;;;4993989;28;20417;-82
2021/10/30 10:47:03;;;;;;;19.23;17.23;;;14.30;99.90;;;;;;4984233;28;20451;-82
2021/10/30 10:49:39;;;;;;;18.25;16.23;;;14.40;99.90;;;;;;4995728;28;20440;-82
2021/10/30 10:52:16;;;;;;;24.00;16.83;;;14.60;99.90;;;;;;4994547;28;20911;-82
2021/10/30 10:54:54;;;;;;;21.23;17.37;;;14.80;99.90;;;;;;4995619;28;20887;-85
2021/10/30 10:57:47;;;;;;;19.57;17.13;;;14.90;99.90;;;;;;4995245;28;20405;-82
2021/10/30 11:00:14;;;;;;;22.30;18.03;;;14.80;99.90;;;;;;4994978;28;20453;-82
2021/10/30 11:02:48;;;;;;;21.97;17.77;;;14.80;99.90;;;;;;4995232;28;20452;-81
2021/10/30 11:05:14;;;;;;;21.23;19.02;;;14.90;99.90;;;;;;4995042;28;20393;-82
2021/10/30 11:07:42;;;;;;;19.42;17.35;;;14.80;99.90;;;;;;4995275;28;20401;-82
2021/10/30 11:10:15;;;;;;;21.20;18.15;;;15.00;99.90;;;;;;4993723;28;20871;-82
2021/10/30 11:12:58;;;;;;;19.83;17.73;;;15.10;99.90;;;;;;4982604;28;20420;-82
2021/10/30 11:15:40;;;;;;;20.80;17.30;;;15.00;99.90;;;;;;4981808;28;20381;-82
2021/10/30 11:18:12;;;;;;;19.65;16.77;;;15.00;99.90;;;;;;4979355;28;20911;-86
2021/10/30 11:20:43;;;;;;;19.43;17.33;;;14.90;99.90;;;;;;4985043;28;20452;-83
2021/10/30 11:23:23;;;;;;;18.58;16.70;;;14.80;99.90;;;;;;4983465;28;20387;-83
2021/10/30 11:25:55;;;;;;;19.80;17.50;;;15.00;99.90;;;;;;4983091;28;20430;-84
2021/10/30 11:28:24;;;;;;;19.13;17.13;;;14.80;99.90;;;;;;4984532;28;20409;-83
2021/10/30 11:30:50;;;;;;;20.10;17.08;;;14.80;99.90;;;;;;4985110;28;20413;-82
2021/10/30 11:33:28;;;;;;;21.20;17.60;;;14.80;99.90;;;;;;4988255;28;20405;-85
2021/10/30 11:35:56;;;;;;;20.20;18.00;;;14.90;99.90;;;;;;4981677;28;20402;-83
2021/10/30 11:38:22;;;;;;;20.07;17.30;;;14.80;99.90;;;;;;4984727;28;20389;-83
2021/10/30 11:40:57;;;;;;;20.48;17.77;;;14.80;99.90;;;;;;4985328;28;20476;-82
2021/10/30 11:43:25;;;;;;;19.45;17.48;;;14.70;99.90;;;;;;4983129;28;20409;-82
2021/10/30 11:45:54;;;;;;;19.20;17.20;;;14.70;99.90;;;;;;4980245;28;20409;-83
2021/10/30 11:48:20;;;;;;;18.48;15.85;;;14.70;99.90;;;;;;4979336;28;20398;-82
2021/10/30 11:50:54;;;;;;;20.67;17.48;;;14.70;99.90;;;;;;4987370;28;20505;-83
2021/10/30 11:53:19;;;;;;;21.63;16.85;;;14.60;99.90;;;;;;4976661;28;20468;-85
2021/10/30 11:55:58;;;;;;;18.95;16.90;;;14.60;99.90;;;;;;4982637;28;20790;-82
2021/10/30 11:58:44;;;;;;;18.73;16.83;;;14.60;99.90;;;;;;4988678;28;20986;-82
2021/10/30 12:01:49;;;;;;;19.23;17.02;;;14.70;99.90;;;;;;4984645;28;20392;-85
2021/10/30 12:04:18;;;;;;;20.50;16.42;;;14.70;99.90;;;;;;4976527;28;20747;-84
2021/10/30 12:06:51;;;;;;;18.30;15.95;;;14.80;99.90;;;;;;4982510;28;20388;-82
2021/10/30 12:09:23;;;;;;;19.23;16.33;;;14.70;99.90;;;;;;4980445;28;20391;-81
2021/10/30 12:11:53;;;;;;;22.33;16.47;;;14.80;99.90;;;;;;4985292;28;20416;-84
2021/10/30 12:14:29;;;;;;;20.88;17.33;;;14.80;99.90;;;;;;4981613;28;20652;-83
2021/10/30 12:17:21;;;;;;;18.23;16.33;;;14.80;99.90;;;;;;4992504;28;20384;-84
2021/10/30 12:20:08;;;;;;;19.85;17.42;;;14.60;99.90;;;;;;4992848;28;20389;-81
2021/10/30 12:22:41;;;;;;;21.70;17.17;;;14.60;99.90;;;;;;4992318;28;20520;-86
2021/10/30 12:25:23;;;;;;;21.70;17.37;;;14.60;99.90;;;;;;4993604;28;20811;-84
2021/10/30 12:27:49;;;;;;;19.63;16.77;;;14.50;99.90;;;;;;4993181;28;20388;-83
2021/10/30 12:30:26;;;;;;;19.23;17.23;;;14.50;99.90;;;;;;4992617;28;20387;-84
2021/10/30 12:32:53;;;;;;;20.33;17.92;;;14.40;99.90;;;;;;4986237;28;20413;-86
2021/10/30 12:35:20;;;;;;;19.02;17.02;;;14.40;99.90;;;;;;4990653;28;20395;-83
2021/10/30 12:37:47;;;;;;;24.13;17.73;;;14.40;99.90;;;;;;4998607;28;20381;-82